Wednesday, May 23, 2018, 9:08 AM EDT
Back to Local

KHIE, Mt Washington Regional Airport

Location: Jefferson, NH, United States Lat: 44.367
Local Time: 9:08 AM EDT (13:08 GMT) Lon: -71.55
Time Zone: US/Eastern Elev: 1072 ft

Show me the last for .
Show Decoded

2018-05-23 08:59 METAR KHIE 231259Z AUTO VRB03KT 10SM FEW008 BKN014 BKN024 16/13 A2992 RMK AO2
                 T01610133 =
2018-05-23 08:52 METAR KHIE 231252Z AUTO 00000KT 10SM SCT009 SCT014 BKN024 16/13 A2992 RMK AO2
                 SLP133 T01560133 =
2018-05-23 08:07 METAR KHIE 231207Z AUTO 00000KT 10SM BKN006 14/13 A2992 RMK AO2 CIG 004V011
                 T01390128 =
2018-05-23 07:52 METAR KHIE 231152Z AUTO 18003KT 10SM OVC005 13/12 A2991 RMK AO2 SLP130 60007
                 70021 T01330122 10133 20117 53009 =
2018-05-23 07:36 METAR KHIE 231136Z AUTO 18003KT 9SM OVC005 13/12 A2991 RMK AO2 T01280122 =
2018-05-23 07:25 METAR KHIE 231125Z AUTO 20003KT 9SM OVC004 13/12 A2991 RMK AO2 T01280122 =
2018-05-23 07:14 METAR KHIE 231114Z AUTO 21003KT 10SM BKN006 OVC025 13/12 A2990 RMK AO2 T01280117
                 =
2018-05-23 06:52 METAR KHIE 231052Z AUTO 00000KT 5SM BR FEW009 OVC023 12/12 A2990 RMK AO2 SLP126
                 T01220117 =
2018-05-23 06:49 METAR KHIE 231049Z AUTO 17003KT 5SM BR FEW004 SCT009 OVC023 12/12 A2989 RMK AO2
                 =
2018-05-23 06:41 METAR KHIE 231041Z AUTO 00000KT 5SM BR FEW003 BKN009 OVC023 12/12 A2989 RMK AO2
                 T01220117 =
2018-05-23 06:34 METAR KHIE 231034Z AUTO 00000KT 5SM BR SCT004 BKN010 OVC021 12/12 A2989 RMK AO2
                 CIG 007V012 T01220117 =
2018-05-23 06:25 METAR KHIE 231025Z AUTO 30003KT 5SM BR BKN004 OVC010 12/12 A2990 RMK AO2 CIG
                 002V007 T01220117 =
2018-05-23 06:16 METAR KHIE 231016Z AUTO 00000KT 6SM BR BKN005 BKN012 OVC021 12/12 A2989 RMK AO2
                 CIG 002V007 T01220117 =
2018-05-23 05:59 METAR KHIE 230959Z AUTO 00000KT 5SM BR FEW006 BKN014 OVC020 12/12 A2988 RMK AO2
                 T01220117 =
2018-05-23 05:52 METAR KHIE 230952Z AUTO 00000KT 5SM BR SCT013 OVC020 12/12 A2988 RMK AO2 SLP121
                 T01220117 =
2018-05-23 05:20 METAR KHIE 230920Z AUTO 00000KT 7SM BKN011 OVC020 12/12 A2986 RMK AO2 T01220117
                 =
2018-05-23 04:59 METAR KHIE 230859Z AUTO 00000KT 6SM BR OVC009 12/12 A2986 RMK AO2 CIG 005V012
                 T01220117 =
2018-05-23 04:52 METAR KHIE 230852Z AUTO 00000KT 6SM BR OVC011 12/12 A2986 RMK AO2 CIG 005V012
                 SLP113 60007 T01220117 55001 =
2018-05-23 04:40 METAR KHIE 230840Z AUTO 00000KT 4SM BR FEW006 OVC011 12/12 A2986 RMK AO2
                 T01220117 =
2018-05-23 04:32 METAR KHIE 230832Z AUTO 00000KT 2 1/2SM BR FEW006 OVC011 12/12 A2986 RMK AO2
                 T01220117 =
2018-05-23 03:52 METAR KHIE 230752Z AUTO 00000KT 1 3/4SM BR FEW005 OVC011 12/12 A2986 RMK AO2
                 RAE20 SLP112 P0001 T01220117 =
2018-05-23 03:29 METAR KHIE 230729Z AUTO 00000KT 1 3/4SM BR SCT007 OVC012 12/12 A2986 RMK AO2
                 RAE20 P0000 T01220117 =
2018-05-23 03:23 METAR KHIE 230723Z AUTO 00000KT 2 1/2SM BR OVC012 12/12 A2986 RMK AO2 RAE20
                 P0000 T01220117 =
2018-05-23 02:52 METAR KHIE 230652Z AUTO 00000KT 7SM -RA OVC011 12/12 A2986 RMK AO2 SLP114 P0006
                 T01220117 =
2018-05-23 02:44 METAR KHIE 230644Z AUTO 00000KT 4SM -RA BR OVC011 12/12 A2986 RMK AO2 P0006
                 T01220117 =
2018-05-23 02:37 METAR KHIE 230637Z AUTO 00000KT 2 1/2SM -RA BR OVC011 12/12 A2986 RMK AO2 P0005
                 T01220117 =
2018-05-23 01:52 METAR KHIE 230552Z AUTO 00000KT 7SM -RA BKN011 OVC017 12/12 A2986 RMK AO2 RAB20
                 SLP113 P0002 60002 T01220117 10128 20122 56004 =
2018-05-23 01:50 METAR KHIE 230550Z AUTO 00000KT 6SM -RA BR BKN011 OVC018 12/12 A2987 RMK AO2
                 RAB20 P0002 =
2018-05-23 00:52 METAR KHIE 230452Z AUTO 00000KT 6SM BR OVC022 12/12 A2987 RMK AO2 SLP114
                 T01220117 402280050 =
2018-05-22 23:52 METAR KHIE 230352Z AUTO 00000KT 10SM OVC021 12/12 A2988 RMK AO2 SLP116 T01220117
                 =
2018-05-22 22:52 METAR KHIE 230252Z AUTO 00000KT 8SM OVC026 12/12 A2989 RMK AO2 SLP123 T01220117
                 56020 =
2018-05-22 22:01 METAR KHIE 230201Z AUTO 00000KT 9SM OVC029 13/12 A2991 RMK AO2 T01280122 =
2018-05-22 21:52 METAR KHIE 230152Z AUTO 32004KT 9SM OVC031 13/12 A2991 RMK AO2 SLP130 T01280117
                 =
2018-05-22 20:52 METAR KHIE 230052Z AUTO 00000KT 9SM OVC039 13/12 A2993 RMK AO2 SLP138 T01280122
                 =
2018-05-22 19:52 METAR KHIE 222352Z AUTO 00000KT 10SM OVC038 13/12 A2996 RMK AO2 RAE51 SLP147
                 P0001 60012 T01280117 10194 20128 56027 =
2018-05-22 19:00 METAR KHIE 222300Z AUTO 00000KT 3SM -RA BR BKN039 OVC046 13/13 A2998 RMK AO2
                 P0000 T01330128 =
2018-05-22 18:52 METAR KHIE 222252Z AUTO 09003KT 2 1/2SM -RA BR OVC039 13/12 A2999 RMK AO2 SLP159
                 P0007 T01330122 =
2018-05-22 18:25 METAR KHIE 222225Z AUTO 00000KT 1 3/4SM RA BR OVC039 13/12 A3000 RMK AO2 P0002
                 T01330117 =
2018-05-22 17:52 METAR KHIE 222152Z AUTO 08004KT 10SM -RA BKN050 OVC060 14/11 A3000 RMK AO2
                 RAB2054 SLP164 P0001 T01390111 =
2018-05-22 16:52 METAR KHIE 222052Z AUTO VRB04KT 10SM OVC050 16/11 A3004 RMK AO2 RAE1957 SLP176
                 P0000 60003 T01610106 58016 =
2018-05-22 15:52 METAR KHIE 221952Z AUTO 00000KT 9SM -RA OVC065 16/13 A3006 RMK AO2 SLP185 P0002
                 T01610128 =
2018-05-22 14:52 METAR KHIE 221852Z AUTO 26008KT 5SM -RA FEW044 SCT050 OVC070 16/12 A3008 RMK AO2
                 SLP190 P0001 T01560122 =
2018-05-22 13:52 METAR KHIE 221752Z AUTO VRB05KT 10SM -RA FEW055 OVC075 19/08 A3009 RMK AO2 RAB48
                 SLP191 P0000 60000 T01940078 10228 20111 56009 =
2018-05-22 12:52 METAR KHIE 221652Z AUTO 23011G19KT 10SM BKN090 22/06 A3009 RMK AO2 SLP190
                 T02170056 =
2018-05-22 11:52 METAR KHIE 221552Z AUTO VRB06KT 10SM CLR 23/05 A3009 RMK AO2 SLP191 T02280050 =
2018-05-22 10:52 METAR KHIE 221452Z AUTO 30004KT 10SM CLR 21/11 A3011 RMK AO2 SLP199 T02060106
                 56015 =
2018-05-22 09:52 METAR KHIE 221352Z AUTO 00000KT 9SM CLR 18/11 A3013 RMK AO2 SLP203 T01830111 =

Support USWX by starting your Amazon purchase here.